Time;durP1;ratioP1;P1;durP2;ratioP2;P2;SDS_P1;SDS_P2;PMS_P1;PMS_P2;Temp;Humidity;BMP_temperature;BMP_pressure;BME280_temperature;BME280_humidity;BME280_pressure;Samples;Min_cycle;Max_cycle;Signal;HPM_P1;HPM_P2
2023/10/25 00:00:04;;;;;;;5.40;3.00;;;;;;;;;;702369;28;1142;-66
2023/10/25 00:00:25;;;;;;;6.63;3.13;;;;;;;;;;701894;28;1737;-66
2023/10/25 00:00:46;;;;;;;6.47;3.28;;;;;;;;;;701806;28;4288;-65
2023/10/25 00:01:07;;;;;;;6.80;3.30;;;;;;;;;;703009;28;828;-65
2023/10/25 00:01:27;;;;;;;4.95;3.00;;;;;;;;;;704673;27;936;-65
2023/10/25 00:01:48;;;;;;;5.30;2.95;;;;;;;;;;705176;27;1208;-65
2023/10/25 00:02:08;;;;;;;6.07;3.13;;;;;;;;;;705201;27;776;-66
2023/10/25 00:02:28;;;;;;;6.63;3.00;;;;;;;;;;704631;27;1671;-66
2023/10/25 00:02:48;;;;;;;6.55;3.05;;;;;;;;;;704904;27;796;-66
2023/10/25 00:03:12;;;;;;;5.93;3.10;;;;;;;;;;705387;27;896;-66
2023/10/25 00:03:32;;;;;;;6.78;3.17;;;;;;;;;;704426;27;1753;-66
2023/10/25 00:03:52;;;;;;;6.05;3.33;;;;;;;;;;705929;27;4318;-66
2023/10/25 00:04:13;;;;;;;5.40;3.20;;;;;;;;;;705479;27;1062;-66
2023/10/25 00:04:33;;;;;;;6.20;3.30;;;;;;;;;;704918;27;1784;-66
2023/10/25 00:04:54;;;;;;;5.50;3.15;;;;;;;;;;706176;27;1209;-66
2023/10/25 00:05:15;;;;;;;5.40;3.00;;;;;;;;;;706232;27;1275;-66
2023/10/25 00:05:35;;;;;;;4.80;3.00;;;;;;;;;;703446;27;1828;-66
2023/10/25 00:05:55;;;;;;;5.57;2.93;;;;;;;;;;705489;27;1057;-66
2023/10/25 00:06:15;;;;;;;4.60;2.93;;;;;;;;;;704392;27;1784;-65
2023/10/25 00:06:36;;;;;;;6.00;3.00;;;;;;;;;;705841;27;1275;-66
2023/10/25 00:06:56;;;;;;;5.72;2.90;;;;;;;;;;705864;27;4459;-66
2023/10/25 00:07:18;;;;;;;5.57;3.00;;;;;;;;;;702785;28;1568;-66
2023/10/25 00:07:38;;;;;;;5.28;3.03;;;;;;;;;;704889;27;1164;-65
2023/10/25 00:07:59;;;;;;;4.70;2.80;;;;;;;;;;703952;28;1272;-66
2023/10/25 00:08:19;;;;;;;5.60;3.20;;;;;;;;;;702508;28;1497;-65
2023/10/25 00:08:39;;;;;;;6.50;3.53;;;;;;;;;;702830;28;841;-66
2023/10/25 00:09:00;;;;;;;5.90;3.10;;;;;;;;;;703046;28;1242;-66
2023/10/25 00:09:20;;;;;;;5.17;3.00;;;;;;;;;;700485;28;1832;-66
2023/10/25 00:09:40;;;;;;;6.68;3.08;;;;;;;;;;702924;28;1169;-66
2023/10/25 00:10:01;;;;;;;8.30;3.17;;;;;;;;;;703996;27;4420;-66
2023/10/25 00:10:21;;;;;;;8.00;3.50;;;;;;;;;;703915;27;1932;-66
2023/10/25 00:10:41;;;;;;;5.78;3.00;;;;;;;;;;706109;27;1115;-65
2023/10/25 00:11:02;;;;;;;7.30;3.07;;;;;;;;;;705495;28;919;-65
2023/10/25 00:11:23;;;;;;;7.20;3.40;;;;;;;;;;705039;27;1218;-66
2023/10/25 00:11:43;;;;;;;5.00;3.10;;;;;;;;;;705255;27;856;-66
2023/10/25 00:12:03;;;;;;;4.55;3.08;;;;;;;;;;705607;27;804;-66
2023/10/25 00:12:23;;;;;;;5.73;3.03;;;;;;;;;;704119;27;1826;-66
2023/10/25 00:12:44;;;;;;;6.50;3.30;;;;;;;;;;703811;27;4378;-66
2023/10/25 00:13:04;;;;;;;5.57;3.20;;;;;;;;;;706684;27;1909;-66
2023/10/25 00:13:24;;;;;;;4.77;2.90;;;;;;;;;;705149;27;1797;-66
2023/10/25 00:13:45;;;;;;;6.37;3.23;;;;;;;;;;705943;27;1197;-66
2023/10/25 00:14:05;;;;;;;6.13;3.20;;;;;;;;;;704871;27;757;-66
2023/10/25 00:14:26;;;;;;;5.47;3.13;;;;;;;;;;704991;27;1529;-66
2023/10/25 00:14:46;;;;;;;6.07;3.08;;;;;;;;;;706440;27;883;-66
2023/10/25 00:15:07;;;;;;;6.30;3.17;;;;;;;;;;706037;27;829;-65
2023/10/25 00:15:27;;;;;;;5.10;3.03;;;;;;;;;;705157;27;1950;-66
2023/10/25 00:15:47;;;;;;;5.77;3.00;;;;;;;;;;704219;27;5181;-66
2023/10/25 00:16:08;;;;;;;6.28;2.92;;;;;;;;;;702461;28;880;-66
2023/10/25 00:16:28;;;;;;;7.20;3.10;;;;;;;;;;701248;28;3455;-66
2023/10/25 00:16:48;;;;;;;5.57;2.97;;;;;;;;;;701663;28;870;-66
2023/10/25 00:17:08;;;;;;;5.20;3.05;;;;;;;;;;703561;28;1110;-66
2023/10/25 00:17:29;;;;;;;5.10;2.90;;;;;;;;;;701647;28;1730;-66
2023/10/25 00:17:49;;;;;;;4.87;2.90;;;;;;;;;;702415;28;824;-66
2023/10/25 00:18:09;;;;;;;6.72;3.00;;;;;;;;;;705161;27;932;-66
2023/10/25 00:18:30;;;;;;;4.70;2.90;;;;;;;;;;704369;27;1752;-66
2023/10/25 00:18:50;;;;;;;4.82;2.92;;;;;;;;;;705287;27;4349;-66
2023/10/25 00:19:10;;;;;;;6.67;3.00;;;;;;;;;;705595;27;1656;-66
2023/10/25 00:19:31;;;;;;;5.90;2.90;;;;;;;;;;703498;27;1421;-66
2023/10/25 00:19:52;;;;;;;6.55;3.10;;;;;;;;;;704731;27;812;-66
2023/10/25 00:20:12;;;;;;;5.53;3.10;;;;;;;;;;706952;27;1142;-66
2023/10/25 00:20:32;;;;;;;4.67;2.93;;;;;;;;;;703685;27;1880;-64
2023/10/25 00:20:53;;;;;;;4.10;2.80;;;;;;;;;;701309;28;932;-65
2023/10/25 00:21:13;;;;;;;5.00;2.90;;;;;;;;;;703877;28;825;-65
2023/10/25 00:21:33;;;;;;;4.50;2.80;;;;;;;;;;701942;28;1788;-65
2023/10/25 00:21:54;;;;;;;4.90;2.70;;;;;;;;;;702348;28;4466;-65
2023/10/25 00:22:14;;;;;;;5.87;3.10;;;;;;;;;;703257;28;884;-65
2023/10/25 00:22:35;;;;;;;5.43;3.05;;;;;;;;;;700461;28;2214;-65
2023/10/25 00:22:55;;;;;;;6.23;2.90;;;;;;;;;;705257;27;804;-65
2023/10/25 00:23:15;;;;;;;5.50;2.80;;;;;;;;;;707113;27;1165;-65
2023/10/25 00:23:35;;;;;;;6.10;2.93;;;;;;;;;;704229;27;1777;-65
2023/10/25 00:23:56;;;;;;;6.73;3.03;;;;;;;;;;705504;27;1138;-65
2023/10/25 00:24:16;;;;;;;5.00;3.10;;;;;;;;;;704966;27;1101;-65
2023/10/25 00:24:36;;;;;;;4.90;3.00;;;;;;;;;;704919;27;1813;-65
2023/10/25 00:24:56;;;;;;;4.72;2.90;;;;;;;;;;704871;27;4281;-65
2023/10/25 00:25:17;;;;;;;5.23;3.00;;;;;;;;;;705108;27;864;-65
2023/10/25 00:25:37;;;;;;;5.83;3.10;;;;;;;;;;699415;28;1131;-65
2023/10/25 00:25:57;;;;;;;4.50;2.80;;;;;;;;;;699437;28;1130;-65
2023/10/25 00:26:17;;;;;;;4.23;2.73;;;;;;;;;;697665;28;1504;-65
2023/10/25 00:26:43;;;;;;;4.93;3.00;;;;;;;;;;697979;28;1349;-65
2023/10/25 00:27:03;;;;;;;5.87;2.80;;;;;;;;;;698735;28;963;-65
2023/10/25 00:27:24;;;;;;;5.13;2.90;;;;;;;;;;697935;28;1916;-65
2023/10/25 00:27:44;;;;;;;4.78;3.03;;;;;;;;;;703760;28;4319;-65
2023/10/25 00:28:04;;;;;;;4.27;2.90;;;;;;;;;;704090;28;872;-65
2023/10/25 00:28:24;;;;;;;5.13;3.07;;;;;;;;;;699160;28;1574;-66
2023/10/25 00:28:45;;;;;;;5.85;3.03;;;;;;;;;;703089;28;1264;-65
2023/10/25 00:29:05;;;;;;;5.03;2.83;;;;;;;;;;703626;28;987;-65
2023/10/25 00:29:25;;;;;;;5.63;2.87;;;;;;;;;;700427;28;1773;-65
2023/10/25 00:29:45;;;;;;;5.70;2.88;;;;;;;;;;697373;28;1249;-65
2023/10/25 00:30:06;;;;;;;6.40;2.90;;;;;;;;;;697407;28;962;-67
2023/10/25 00:30:26;;;;;;;5.90;3.17;;;;;;;;;;695218;28;2165;-65
2023/10/25 00:30:47;;;;;;;6.50;3.13;;;;;;;;;;697205;28;4604;-65
2023/10/25 00:31:07;;;;;;;5.27;2.80;;;;;;;;;;698076;28;900;-65
2023/10/25 00:31:27;;;;;;;4.93;2.90;;;;;;;;;;693361;28;3440;-65
2023/10/25 00:31:47;;;;;;;4.60;2.90;;;;;;;;;;698216;28;1578;-65
2023/10/25 00:32:14;;;;;;;4.93;2.80;;;;;;;;;;698094;28;1001;-65
2023/10/25 00:32:34;;;;;;;5.20;3.00;;;;;;;;;;698115;28;1870;-65
2023/10/25 00:32:55;;;;;;;4.03;2.80;;;;;;;;;;700759;28;843;-65
2023/10/25 00:33:15;;;;;;;4.20;2.83;;;;;;;;;;698622;28;1902;-65
2023/10/25 00:33:35;;;;;;;4.55;2.97;;;;;;;;;;699670;28;1545;-65
2023/10/25 00:33:57;;;;;;;4.80;3.10;;;;;;;;;;703002;28;4359;-65
2023/10/25 00:34:17;;;;;;;5.05;2.90;;;;;;;;;;699819;28;1258;-65
2023/10/25 00:34:37;;;;;;;5.50;2.90;;;;;;;;;;699770;28;1755;-65
2023/10/25 00:34:58;;;;;;;6.13;2.83;;;;;;;;;;698197;28;1446;-65
2023/10/25 00:35:18;;;;;;;5.40;2.80;;;;;;;;;;700029;28;1788;-65
2023/10/25 00:35:38;;;;;;;5.57;2.90;;;;;;;;;;701681;28;1103;-65
2023/10/25 00:35:59;;;;;;;6.10;3.03;;;;;;;;;;701487;28;1069;-65
2023/10/25 00:36:19;;;;;;;6.00;2.80;;;;;;;;;;698716;28;1375;-65
2023/10/25 00:36:40;;;;;;;5.13;2.75;;;;;;;;;;701156;28;773;-65
2023/10/25 00:37:00;;;;;;;5.00;3.00;;;;;;;;;;697574;28;4653;-65
2023/10/25 00:37:20;;;;;;;5.40;2.80;;;;;;;;;;697416;28;1866;-65
2023/10/25 00:37:40;;;;;;;5.68;2.90;;;;;;;;;;695066;28;1367;-64
2023/10/25 00:38:01;;;;;;;6.23;2.77;;;;;;;;;;692663;28;1360;-64
2023/10/25 00:38:22;;;;;;;5.47;2.97;;;;;;;;;;694255;28;1796;-66
2023/10/25 00:38:42;;;;;;;4.53;3.05;;;;;;;;;;697941;28;974;-65
2023/10/25 00:39:03;;;;;;;6.40;3.25;;;;;;;;;;700546;28;5674;-65
2023/10/25 00:39:23;;;;;;;5.93;2.90;;;;;;;;;;698322;28;1773;-65
2023/10/25 00:39:43;;;;;;;5.18;3.00;;;;;;;;;;700087;28;4270;-65
2023/10/25 00:40:04;;;;;;;5.20;2.90;;;;;;;;;;698710;28;1214;-65
2023/10/25 00:40:24;;;;;;;5.70;3.00;;;;;;;;;;696891;28;1829;-65
2023/10/25 00:40:44;;;;;;;5.43;3.10;;;;;;;;;;695703;28;1483;-64
2023/10/25 00:41:05;;;;;;;4.80;3.00;;;;;;;;;;695237;28;1155;-65
2023/10/25 00:41:25;;;;;;;5.50;3.00;;;;;;;;;;694420;28;1068;-65
2023/10/25 00:41:45;;;;;;;7.17;3.43;;;;;;;;;;693958;28;1222;-66
2023/10/25 00:42:06;;;;;;;4.97;3.20;;;;;;;;;;696486;28;891;-64
2023/10/25 00:42:26;;;;;;;5.30;3.08;;;;;;;;;;695695;28;1731;-64
2023/10/25 00:42:46;;;;;;;5.43;3.13;;;;;;;;;;700050;28;4305;-65
2023/10/25 00:43:16;;;;;;;5.70;3.00;;;;;;;;;;697299;28;1258;-65
2023/10/25 00:43:36;;;;;;;7.22;3.00;;;;;;;;;;698256;28;1761;-66
2023/10/25 00:43:56;;;;;;;7.87;3.07;;;;;;;;;;701280;28;838;-65
2023/10/25 00:44:18;;;;;;;6.20;2.97;;;;;;;;;;701574;28;1233;-65
2023/10/25 00:44:39;;;;;;;6.57;3.10;;;;;;;;;;702134;28;1745;-64
2023/10/25 00:45:00;;;;;;;6.72;3.20;;;;;;;;;;705694;27;824;-64
2023/10/25 00:45:20;;;;;;;5.90;3.13;;;;;;;;;;703598;27;1476;-65
2023/10/25 00:46:06;;;;;;;6.95;3.00;;;;;;;;;;706553;27;887;-64
2023/10/25 00:46:27;;;;;;;5.10;2.90;;;;;;;;;;695326;28;5390;-65
2023/10/25 00:46:48;;;;;;;5.90;3.08;;;;;;;;;;702516;28;950;-64
2023/10/25 00:47:08;;;;;;;7.20;2.97;;;;;;;;;;701301;28;941;-64
2023/10/25 00:47:28;;;;;;;5.67;3.00;;;;;;;;;;701333;28;1359;-66
2023/10/25 00:47:49;;;;;;;5.77;2.90;;;;;;;;;;700985;28;994;-64
2023/10/25 00:48:09;;;;;;;5.22;2.70;;;;;;;;;;699664;28;1645;-65
2023/10/25 00:48:30;;;;;;;6.17;2.80;;;;;;;;;;701197;28;1787;-64
2023/10/25 00:48:52;;;;;;;6.90;3.00;;;;;;;;;;701542;28;4449;-64
2023/10/25 00:49:13;;;;;;;6.00;3.03;;;;;;;;;;700531;28;1524;-64
2023/10/25 00:49:34;;;;;;;5.30;2.88;;;;;;;;;;699385;28;1491;-65
2023/10/25 00:49:54;;;;;;;6.40;2.73;;;;;;;;;;701246;28;860;-65
2023/10/25 00:50:17;;;;;;;6.30;2.90;;;;;;;;;;700269;28;843;-64
2023/10/25 00:50:37;;;;;;;4.47;2.83;;;;;;;;;;699463;28;1787;-65
2023/10/25 00:50:58;;;;;;;4.87;2.90;;;;;;;;;;703634;28;810;-64
2023/10/25 00:51:19;;;;;;;5.05;2.92;;;;;;;;;;703452;28;1130;-65
2023/10/25 00:51:40;;;;;;;5.63;2.65;;;;;;;;;;705547;27;907;-64
2023/10/25 00:52:01;;;;;;;5.67;2.83;;;;;;;;;;703545;28;4353;-64
2023/10/25 00:52:21;;;;;;;4.70;3.00;;;;;;;;;;701436;28;1713;-65
2023/10/25 00:52:42;;;;;;;5.17;2.77;;;;;;;;;;701200;28;1433;-64
2023/10/25 00:53:02;;;;;;;5.10;2.80;;;;;;;;;;700923;28;1057;-65
2023/10/25 00:53:23;;;;;;;5.88;2.88;;;;;;;;;;699881;28;1938;-64
2023/10/25 00:53:48;;;;;;;5.65;2.80;;;;;;;;;;696921;28;1985;-64
2023/10/25 00:54:09;;;;;;;5.35;2.88;;;;;;;;;;697831;28;895;-65
2023/10/25 00:54:29;;;;;;;5.93;3.00;;;;;;;;;;700071;28;923;-64
2023/10/25 00:54:50;;;;;;;4.77;2.90;;;;;;;;;;702806;28;4606;-64
2023/10/25 00:55:10;;;;;;;5.40;2.75;;;;;;;;;;700628;28;840;-64
2023/10/25 00:55:30;;;;;;;5.00;2.67;;;;;;;;;;697414;28;1603;-65
2023/10/25 00:55:52;;;;;;;4.38;2.78;;;;;;;;;;698405;28;877;-65
2023/10/25 00:56:13;;;;;;;6.03;2.65;;;;;;;;;;699121;28;970;-65
2023/10/25 00:56:34;;;;;;;5.65;2.60;;;;;;;;;;698200;28;1967;-65
2023/10/25 00:56:55;;;;;;;4.95;2.78;;;;;;;;;;697679;28;893;-65
2023/10/25 00:57:16;;;;;;;4.47;2.70;;;;;;;;;;701569;28;1333;-65
2023/10/25 00:57:37;;;;;;;5.75;2.80;;;;;;;;;;700013;28;1900;-65
2023/10/25 00:57:58;;;;;;;6.20;3.03;;;;;;;;;;701141;28;4308;-65
2023/10/25 00:58:18;;;;;;;5.67;2.90;;;;;;;;;;702237;28;1409;-65
2023/10/25 00:58:40;;;;;;;5.80;2.88;;;;;;;;;;697361;28;1781;-65
2023/10/25 00:59:00;;;;;;;6.40;2.80;;;;;;;;;;698317;28;1049;-65
2023/10/25 00:59:21;;;;;;;6.70;2.95;;;;;;;;;;696830;28;1937;-64
2023/10/25 00:59:42;;;;;;;6.78;2.90;;;;;;;;;;699362;28;923;-65
2023/10/25 01:00:02;;;;;;;5.90;2.70;;;;;;;;;;696511;28;1311;-64
2023/10/25 01:00:25;;;;;;;5.80;2.78;;;;;;;;;;697195;28;1745;-64
2023/10/25 01:00:46;;;;;;;5.70;2.80;;;;;;;;;;695867;28;4293;-65
2023/10/25 01:01:06;;;;;;;6.68;2.80;;;;;;;;;;698677;28;939;-64
2023/10/25 01:01:27;;;;;;;6.17;2.97;;;;;;;;;;695988;28;1759;-64
2023/10/25 01:01:49;;;;;;;7.07;3.15;;;;;;;;;;698489;28;757;-64
2023/10/25 01:02:10;;;;;;;5.72;3.05;;;;;;;;;;697871;28;1412;-64
2023/10/25 01:02:30;;;;;;;5.78;2.88;;;;;;;;;;697603;28;2030;-66
2023/10/25 01:02:51;;;;;;;5.47;2.90;;;;;;;;;;698193;28;1196;-64
2023/10/25 01:03:11;;;;;;;5.95;2.72;;;;;;;;;;698405;28;1273;-64
2023/10/25 01:03:31;;;;;;;6.00;2.70;;;;;;;;;;697201;28;2315;-64
2023/10/25 01:03:52;;;;;;;5.25;2.78;;;;;;;;;;698324;28;4242;-65
2023/10/25 01:04:13;;;;;;;5.50;2.97;;;;;;;;;;700662;28;975;-65
2023/10/25 01:04:34;;;;;;;6.63;3.20;;;;;;;;;;702047;28;1442;-65
2023/10/25 01:04:54;;;;;;;6.22;3.05;;;;;;;;;;703844;28;1296;-64
2023/10/25 01:05:15;;;;;;;4.40;2.67;;;;;;;;;;699786;28;1566;-65
2023/10/25 01:05:35;;;;;;;5.50;3.03;;;;;;;;;;698137;28;2469;-65
2023/10/25 01:05:55;;;;;;;6.15;3.60;;;;;;;;;;700495;28;1125;-65
2023/10/25 01:06:16;;;;;;;6.87;3.17;;;;;;;;;;698814;28;1146;-65
2023/10/25 01:06:36;;;;;;;6.40;3.00;;;;;;;;;;699703;28;1755;-65
2023/10/25 01:06:57;;;;;;;5.43;3.00;;;;;;;;;;699865;28;4440;-65
2023/10/25 01:07:17;;;;;;;6.10;3.20;;;;;;;;;;700767;28;1368;-65
2023/10/25 01:07:37;;;;;;;7.37;3.00;;;;;;;;;;699805;28;1846;-65
2023/10/25 01:07:58;;;;;;;6.40;2.80;;;;;;;;;;703293;28;1400;-65
2023/10/25 01:08:19;;;;;;;5.57;2.90;;;;;;;;;;705065;27;895;-65
2023/10/25 01:08:40;;;;;;;5.70;3.05;;;;;;;;;;704835;27;1756;-64
2023/10/25 01:09:00;;;;;;;5.80;2.85;;;;;;;;;;701688;28;1492;-65
2023/10/25 01:09:21;;;;;;;5.03;2.80;;;;;;;;;;703255;28;919;-65
2023/10/25 01:09:41;;;;;;;4.35;2.60;;;;;;;;;;700532;28;978;-65
2023/10/25 01:10:02;;;;;;;5.13;2.60;;;;;;;;;;700875;28;4333;-65
2023/10/25 01:10:22;;;;;;;4.97;2.75;;;;;;;;;;699258;28;2234;-64
2023/10/25 01:10:43;;;;;;;6.70;3.50;;;;;;;;;;701608;28;967;-64
2023/10/25 01:11:03;;;;;;;7.43;2.90;;;;;;;;;;700965;28;1183;-64
2023/10/25 01:11:24;;;;;;;5.13;2.77;;;;;;;;;;700135;28;1788;-65
2023/10/25 01:11:44;;;;;;;4.60;2.80;;;;;;;;;;703440;28;1088;-65
2023/10/25 01:12:05;;;;;;;4.60;2.60;;;;;;;;;;704095;28;1126;-64
2023/10/25 01:12:25;;;;;;;5.60;2.63;;;;;;;;;;697799;28;1780;-65
2023/10/25 01:12:46;;;;;;;5.75;2.60;;;;;;;;;;699414;28;4551;-64
2023/10/25 01:13:06;;;;;;;6.73;2.70;;;;;;;;;;700699;28;1921;-64
2023/10/25 01:13:26;;;;;;;8.00;3.30;;;;;;;;;;695664;28;1758;-65
2023/10/25 01:13:46;;;;;;;7.05;3.05;;;;;;;;;;696764;28;1057;-64
2023/10/25 01:14:07;;;;;;;5.10;2.80;;;;;;;;;;696823;28;931;-65
2023/10/25 01:14:27;;;;;;;4.83;2.40;;;;;;;;;;698178;28;1732;-67
2023/10/25 01:14:49;;;;;;;5.85;2.50;;;;;;;;;;699960;28;975;-65
2023/10/25 01:15:11;;;;;;;5.90;2.88;;;;;;;;;;700132;28;1150;-64
2023/10/25 01:15:31;;;;;;;4.95;3.03;;;;;;;;;;697159;28;1834;-64
2023/10/25 01:15:51;;;;;;;4.60;2.80;;;;;;;;;;699154;28;4405;-65
2023/10/25 01:16:12;;;;;;;4.80;2.80;;;;;;;;;;699476;28;1684;-64
2023/10/25 01:16:32;;;;;;;6.85;2.95;;;;;;;;;;695307;28;1696;-65
2023/10/25 01:16:52;;;;;;;8.23;2.90;;;;;;;;;;697699;28;1214;-64
2023/10/25 01:17:13;;;;;;;5.13;2.67;;;;;;;;;;695161;28;750;-65
2023/10/25 01:17:33;;;;;;;5.30;2.70;;;;;;;;;;695053;28;1723;-65
2023/10/25 01:17:53;;;;;;;5.40;2.80;;;;;;;;;;696680;28;1539;-65
2023/10/25 01:18:14;;;;;;;6.73;2.80;;;;;;;;;;696874;28;745;-65
2023/10/25 01:18:34;;;;;;;5.72;2.78;;;;;;;;;;695422;28;1485;-64
2023/10/25 01:18:55;;;;;;;5.43;2.83;;;;;;;;;;693924;28;4506;-64
2023/10/25 01:19:15;;;;;;;6.30;2.97;;;;;;;;;;694097;28;889;-65
2023/10/25 01:19:35;;;;;;;4.47;2.70;;;;;;;;;;691638;28;1701;-65
2023/10/25 01:19:56;;;;;;;4.53;2.53;;;;;;;;;;697498;28;1203;-65
2023/10/25 01:20:18;;;;;;;6.97;2.60;;;;;;;;;;698560;28;794;-65
2023/10/25 01:20:39;;;;;;;6.05;2.60;;;;;;;;;;697166;28;1768;-65
2023/10/25 01:20:59;;;;;;;5.10;2.53;;;;;;;;;;698318;28;1582;-65
2023/10/25 01:21:19;;;;;;;4.53;2.33;;;;;;;;;;701362;28;943;-65
2023/10/25 01:21:42;;;;;;;5.47;2.47;;;;;;;;;;700695;28;1799;-65
2023/10/25 01:22:03;;;;;;;7.63;2.50;;;;;;;;;;701095;28;4281;-65
2023/10/25 01:22:23;;;;;;;8.63;2.60;;;;;;;;;;702511;28;2289;-65
2023/10/25 01:22:44;;;;;;;5.43;2.50;;;;;;;;;;699522;28;1175;-65
2023/10/25 01:23:04;;;;;;;6.20;2.70;;;;;;;;;;700369;28;1573;-65
2023/10/25 01:23:24;;;;;;;6.28;2.53;;;;;;;;;;697273;28;2150;-65
2023/10/25 01:23:49;;;;;;;5.63;2.67;;;;;;;;;;700232;28;1140;-65
2023/10/25 01:24:09;;;;;;;5.68;2.80;;;;;;;;;;700632;28;916;-64
2023/10/25 01:24:30;;;;;;;6.20;2.70;;;;;;;;;;700241;28;987;-64
2023/10/25 01:24:51;;;;;;;6.13;2.50;;;;;;;;;;701927;28;4296;-64
2023/10/25 01:25:11;;;;;;;5.13;2.60;;;;;;;;;;700862;28;784;-64
2023/10/25 01:25:33;;;;;;;5.57;2.58;;;;;;;;;;697031;28;1898;-64
2023/10/25 01:25:54;;;;;;;6.45;2.70;;;;;;;;;;699421;28;936;-64
2023/10/25 01:26:14;;;;;;;6.15;2.55;;;;;;;;;;698561;28;1108;-64
2023/10/25 01:26:34;;;;;;;5.00;2.40;;;;;;;;;;699386;28;1822;-64
2023/10/25 01:26:54;;;;;;;5.30;2.40;;;;;;;;;;702953;28;828;-64
2023/10/25 01:27:15;;;;;;;4.03;2.43;;;;;;;;;;699265;28;1229;-64
2023/10/25 01:27:35;;;;;;;5.18;3.00;;;;;;;;;;699312;28;2998;-64
2023/10/25 01:27:56;;;;;;;5.53;3.00;;;;;;;;;;699470;28;4461;-64
2023/10/25 01:28:16;;;;;;;4.37;2.40;;;;;;;;;;698630;28;1170;-64
2023/10/25 01:28:36;;;;;;;4.50;2.60;;;;;;;;;;699702;28;1138;-64
2023/10/25 01:28:56;;;;;;;5.23;2.50;;;;;;;;;;698175;28;1251;-65
2023/10/25 01:29:17;;;;;;;5.73;2.60;;;;;;;;;;697349;28;931;-64
2023/10/25 01:29:37;;;;;;;6.40;2.60;;;;;;;;;;697066;28;1501;-64
2023/10/25 01:29:57;;;;;;;5.15;2.40;;;;;;;;;;694111;28;1448;-63
2023/10/25 01:30:17;;;;;;;5.80;2.43;;;;;;;;;;695313;28;939;-64
2023/10/25 01:30:38;;;;;;;6.63;2.80;;;;;;;;;;693452;28;1763;-63
2023/10/25 01:30:59;;;;;;;7.00;2.80;;;;;;;;;;694824;28;4272;-62
2023/10/25 01:31:19;;;;;;;6.65;2.78;;;;;;;;;;695113;28;1104;-64
2023/10/25 01:31:39;;;;;;;4.93;2.50;;;;;;;;;;697533;28;1791;-64
2023/10/25 01:32:00;;;;;;;5.88;2.60;;;;;;;;;;696711;28;1215;-64
2023/10/25 01:32:21;;;;;;;5.27;2.60;;;;;;;;;;697071;28;1086;-64
2023/10/25 01:32:42;;;;;;;6.05;2.80;;;;;;;;;;697280;28;1827;-64
2023/10/25 01:33:02;;;;;;;7.43;3.00;;;;;;;;;;698307;28;1305;-64
2023/10/25 01:33:22;;;;;;;6.80;2.90;;;;;;;;;;699387;28;1914;-64
2023/10/25 01:33:43;;;;;;;4.95;2.60;;;;;;;;;;699358;28;4479;-64
2023/10/25 01:34:04;;;;;;;5.22;2.45;;;;;;;;;;704172;28;1026;-64
2023/10/25 01:34:25;;;;;;;4.97;2.50;;;;;;;;;;700184;28;1555;-64
2023/10/25 01:34:45;;;;;;;5.93;2.43;;;;;;;;;;700000;28;1278;-64
2023/10/25 01:35:06;;;;;;;6.40;2.57;;;;;;;;;;701404;28;1480;-65
2023/10/25 01:35:26;;;;;;;9.10;2.67;;;;;;;;;;699466;28;1928;-65
2023/10/25 01:35:47;;;;;;;8.73;2.95;;;;;;;;;;700121;28;1010;-64
2023/10/25 01:36:07;;;;;;;5.13;2.72;;;;;;;;;;700346;28;1206;-64
2023/10/25 01:36:28;;;;;;;4.77;2.63;;;;;;;;;;700284;28;1854;-64
2023/10/25 01:36:49;;;;;;;5.83;2.43;;;;;;;;;;696538;28;4443;-65
2023/10/25 01:37:09;;;;;;;5.67;2.70;;;;;;;;;;698612;28;893;-64
2023/10/25 01:37:29;;;;;;;4.65;2.70;;;;;;;;;;697407;28;1977;-64
2023/10/25 01:37:49;;;;;;;5.77;2.70;;;;;;;;;;698865;28;1229;-64
2023/10/25 01:38:10;;;;;;;5.83;2.70;;;;;;;;;;698887;28;872;-64
2023/10/25 01:38:31;;;;;;;5.78;2.72;;;;;;;;;;700637;28;1646;-64
2023/10/25 01:38:52;;;;;;;5.83;2.67;;;;;;;;;;701076;28;1192;-64
2023/10/25 01:39:12;;;;;;;6.50;2.40;;;;;;;;;;699242;28;1285;-64
2023/10/25 01:39:32;;;;;;;5.50;2.70;;;;;;;;;;696614;28;1649;-65
2023/10/25 01:39:53;;;;;;;5.60;2.70;;;;;;;;;;696307;28;4798;-64
2023/10/25 01:40:13;;;;;;;5.00;2.60;;;;;;;;;;697979;28;936;-65
2023/10/25 01:40:33;;;;;;;5.13;2.40;;;;;;;;;;697542;28;1789;-65
2023/10/25 01:40:53;;;;;;;5.67;2.27;;;;;;;;;;694972;28;1333;-65
2023/10/25 01:41:16;;;;;;;6.40;2.30;;;;;;;;;;698557;28;1408;-65
2023/10/25 01:41:36;;;;;;;6.00;2.50;;;;;;;;;;698794;28;1757;-64
2023/10/25 01:41:56;;;;;;;6.57;2.53;;;;;;;;;;700549;28;1117;-65
2023/10/25 01:42:16;;;;;;;9.02;2.50;;;;;;;;;;702716;28;1436;-64
2023/10/25 01:42:37;;;;;;;6.93;2.43;;;;;;;;;;702310;28;2134;-65
2023/10/25 01:42:57;;;;;;;5.57;2.53;;;;;;;;;;702407;28;4478;-65
2023/10/25 01:43:17;;;;;;;5.15;2.55;;;;;;;;;;702620;28;904;-64
2023/10/25 01:43:38;;;;;;;4.37;2.30;;;;;;;;;;702965;28;1004;-63
2023/10/25 01:43:58;;;;;;;4.83;2.40;;;;;;;;;;702580;28;887;-64
2023/10/25 01:44:18;;;;;;;4.63;2.60;;;;;;;;;;704211;28;1161;-64
2023/10/25 01:44:38;;;;;;;5.83;2.40;;;;;;;;;;703428;28;1706;-65
2023/10/25 01:45:01;;;;;;;6.43;2.50;;;;;;;;;;704553;28;863;-65
2023/10/25 01:45:23;;;;;;;6.20;2.72;;;;;;;;;;704805;28;845;-65
2023/10/25 01:45:43;;;;;;;5.97;2.80;;;;;;;;;;701641;28;4343;-64
2023/10/25 01:46:03;;;;;;;7.60;2.77;;;;;;;;;;704041;28;1465;-65
2023/10/25 01:46:24;;;;;;;7.00;2.70;;;;;;;;;;701822;28;1355;-64
2023/10/25 01:46:44;;;;;;;4.75;2.60;;;;;;;;;;701753;28;1016;-64
2023/10/25 01:47:05;;;;;;;5.40;2.40;;;;;;;;;;698624;28;856;-65
2023/10/25 01:47:25;;;;;;;4.60;2.33;;;;;;;;;;694774;28;1974;-65
2023/10/25 01:47:46;;;;;;;5.47;2.40;;;;;;;;;;695992;28;1254;-64
2023/10/25 01:48:06;;;;;;;6.67;2.50;;;;;;;;;;695461;28;836;-65
2023/10/25 01:48:26;;;;;;;4.57;2.40;;;;;;;;;;696954;28;1783;-65
2023/10/25 01:48:47;;;;;;;4.80;2.60;;;;;;;;;;695937;28;4510;-64
2023/10/25 01:49:07;;;;;;;6.87;2.60;;;;;;;;;;696399;28;1210;-65
2023/10/25 01:49:27;;;;;;;5.95;2.50;;;;;;;;;;699027;28;1850;-65
2023/10/25 01:49:49;;;;;;;6.05;2.50;;;;;;;;;;698727;28;1502;-65
2023/10/25 01:50:09;;;;;;;4.40;2.33;;;;;;;;;;698920;28;859;-64
2023/10/25 01:50:29;;;;;;;3.93;2.23;;;;;;;;;;694854;28;2010;-65
2023/10/25 01:50:53;;;;;;;4.90;2.60;;;;;;;;;;696286;28;1260;-64
2023/10/25 01:51:13;;;;;;;6.75;3.00;;;;;;;;;;698652;28;1501;-65
2023/10/25 01:51:33;;;;;;;5.63;2.40;;;;;;;;;;697447;28;2103;-65
2023/10/25 01:51:54;;;;;;;5.00;2.47;;;;;;;;;;701281;28;4465;-65
2023/10/25 01:52:16;;;;;;;5.15;2.65;;;;;;;;;;699440;28;1357;-64
2023/10/25 01:52:36;;;;;;;8.52;2.72;;;;;;;;;;700702;28;1670;-64
2023/10/25 01:52:56;;;;;;;6.40;2.73;;;;;;;;;;704734;28;792;-65
2023/10/25 01:53:16;;;;;;;5.23;2.80;;;;;;;;;;704257;28;1976;-64
2023/10/25 01:53:37;;;;;;;5.47;2.40;;;;;;;;;;702843;28;2187;-64
2023/10/25 01:53:57;;;;;;;5.37;2.27;;;;;;;;;;704648;28;1162;-64
2023/10/25 01:54:17;;;;;;;4.83;2.17;;;;;;;;;;702637;28;1259;-64
2023/10/25 01:54:39;;;;;;;5.20;2.50;;;;;;;;;;699926;28;1556;-65
2023/10/25 01:54:59;;;;;;;6.20;2.65;;;;;;;;;;701505;28;4431;-64
2023/10/25 01:55:19;;;;;;;5.07;2.40;;;;;;;;;;701844;28;832;-64
2023/10/25 01:55:40;;;;;;;5.07;2.40;;;;;;;;;;696542;28;1773;-64
2023/10/25 01:56:01;;;;;;;4.90;2.20;;;;;;;;;;696500;28;1303;-64
2023/10/25 01:56:21;;;;;;;5.63;2.37;;;;;;;;;;698846;28;1162;-64
2023/10/25 01:56:42;;;;;;;4.72;2.40;;;;;;;;;;697371;28;1904;-64
2023/10/25 01:57:02;;;;;;;5.57;2.30;;;;;;;;;;698317;28;2053;-64
2023/10/25 01:57:23;;;;;;;6.43;2.50;;;;;;;;;;699384;28;939;-63
2023/10/25 01:57:43;;;;;;;5.30;2.40;;;;;;;;;;697153;28;4525;-63
2023/10/25 01:58:04;;;;;;;4.75;2.30;;;;;;;;;;700128;28;848;-64
2023/10/25 01:58:24;;;;;;;5.43;2.40;;;;;;;;;;701564;28;801;-63
2023/10/25 01:58:44;;;;;;;5.20;2.60;;;;;;;;;;698883;28;1472;-64
2023/10/25 01:59:05;;;;;;;5.50;2.37;;;;;;;;;;697853;28;1316;-64
2023/10/25 01:59:25;;;;;;;6.35;2.40;;;;;;;;;;693716;28;1809;-64
2023/10/25 01:59:46;;;;;;;4.90;2.30;;;;;;;;;;698406;28;1326;-64
2023/10/25 02:00:06;;;;;;;5.20;2.47;;;;;;;;;;699198;28;1232;-64
2023/10/25 02:00:32;;;;;;;4.93;2.40;;;;;;;;;;696953;28;1632;-64
2023/10/25 02:00:53;;;;;;;4.97;2.33;;;;;;;;;;694552;28;4321;-64
2023/10/25 02:01:13;;;;;;;5.07;2.50;;;;;;;;;;694875;28;1566;-64
2023/10/25 02:01:34;;;;;;;5.53;2.30;;;;;;;;;;694461;28;1714;-64
2023/10/25 02:01:54;;;;;;;5.20;2.33;;;;;;;;;;696924;28;1309;-64
2023/10/25 02:02:14;;;;;;;4.90;2.53;;;;;;;;;;696121;28;1449;-64
2023/10/25 02:02:34;;;;;;;4.90;2.17;;;;;;;;;;690296;28;1566;-64
2023/10/25 02:02:55;;;;;;;6.23;2.20;;;;;;;;;;691341;28;1338;-65
2023/10/25 02:03:15;;;;;;;5.97;2.10;;;;;;;;;;693708;28;790;-64
2023/10/25 02:03:37;;;;;;;4.78;2.35;;;;;;;;;;693943;28;1762;-64
2023/10/25 02:03:57;;;;;;;4.87;2.30;;;;;;;;;;692261;28;4252;-64
2023/10/25 02:04:18;;;;;;;6.35;2.60;;;;;;;;;;693694;28;1300;-64
2023/10/25 02:04:38;;;;;;;6.17;2.47;;;;;;;;;;691458;28;1753;-64
2023/10/25 02:04:59;;;;;;;4.75;2.08;;;;;;;;;;699072;28;903;-64
2023/10/25 02:05:19;;;;;;;5.07;2.00;;;;;;;;;;701670;28;1146;-64
2023/10/25 02:05:39;;;;;;;4.03;2.10;;;;;;;;;;701199;28;1387;-64
2023/10/25 02:06:09;;;;;;;4.30;2.20;;;;;;;;;;701438;28;1617;-64
2023/10/25 02:06:30;;;;;;;5.38;2.28;;;;;;;;;;696803;28;1358;-65
2023/10/25 02:06:52;;;;;;;4.90;2.20;;;;;;;;;;697351;28;4242;-65
2023/10/25 02:07:12;;;;;;;4.53;2.25;;;;;;;;;;696164;28;1695;-64
2023/10/25 02:07:32;;;;;;;5.17;2.40;;;;;;;;;;693624;28;2201;-64
2023/10/25 02:07:53;;;;;;;4.07;2.20;;;;;;;;;;695597;28;1164;-64
2023/10/25 02:08:13;;;;;;;3.78;2.15;;;;;;;;;;696378;28;880;-65
2023/10/25 02:08:33;;;;;;;5.10;2.10;;;;;;;;;;697678;28;1742;-65